NCAR-RAP Real-Time Weather Data

Output produced by METARs form (19 November 2018  11:43 UTC)
found at http://weather.rap.ucar.edu/surface/
 
Conditions at: KMCO observed 19 November 2018  10:53 UTC
Temperature: 17.8°C (64°F)
Dewpoint: 16.7°C (62°F) [RH = 93%]
Pressure (altimeter): 30.10 inches Hg (1019.4 mb)
[Sea-level pressure: 1019.0 mb]
Winds: from the N (360 degrees) at 6 MPH (5 knots; 2.6 m/s)
Visibility: 10 or more miles (16+ km)
Ceiling: at least 12,000 feet AGL
Clouds: few clouds at 7500 feet AGL
Present Weather: no significant weather observed at this time
KMCO 191053Z 36005KT 10SM FEW075 18/17 A3010 RMK AO2 SLP190 T01780167

Conditions at: KMCO observed 19 November 2018  09:53 UTC
Temperature: 18.3°C (65°F)
Dewpoint: 16.7°C (62°F) [RH = 90%]
Pressure (altimeter): 30.09 inches Hg (1019.0 mb)
[Sea-level pressure: 1018.7 mb]
Winds: from the N (350 degrees) at 7 MPH (6 knots; 3.1 m/s)
Visibility: 10 or more miles (16+ km)
Ceiling: at least 12,000 feet AGL
Clouds: few clouds at 6500 feet AGL
scattered clouds at 9500 feet AGL
scattered clouds at 18000 feet AGL
Present Weather: no significant weather observed at this time
KMCO 190953Z 35006KT 10SM FEW065 SCT095 SCT180 18/17 A3009 RMK AO2 SLP187 T01830167

Conditions at: KMCO observed 19 November 2018  08:53 UTC
Temperature: 18.9°C (66°F)
Dewpoint: 17.2°C (63°F) [RH = 90%]
Pressure (altimeter): 30.08 inches Hg (1018.7 mb)
[Sea-level pressure: 1018.6 mb]
Winds: from the N (350 degrees) at 3 MPH (3 knots; 1.6 m/s)
Visibility: 10 or more miles (16+ km)
Ceiling: 20000 feet AGL
Clouds: few clouds at 6500 feet AGL
scattered clouds at 9000 feet AGL
broken clouds at 20000 feet AGL
Present Weather: no significant weather observed at this time
KMCO 190853Z 35003KT 10SM FEW065 SCT090 BKN200 19/17 A3008 RMK AO2 SLP186 T01890172 55005

Conditions at: KMCO observed 19 November 2018  07:53 UTC
Temperature: 19.4°C (67°F)
Dewpoint: 17.2°C (63°F) [RH = 87%]
Pressure (altimeter): 30.08 inches Hg (1018.7 mb)
[Sea-level pressure: 1018.5 mb]
Winds: from the NE (40 degrees) at 5 MPH (4 knots; 2.1 m/s)
Visibility: 10 or more miles (16+ km)
Ceiling: 19000 feet AGL
Clouds: few clouds at 4000 feet AGL
scattered clouds at 6500 feet AGL
broken clouds at 19000 feet AGL
Present Weather: no significant weather observed at this time
KMCO 190753Z 04004KT 10SM FEW040 SCT065 BKN190 19/17 A3008 RMK AO2 SLP185 T01940172

Conditions at: KMCO observed 19 November 2018  06:53 UTC
Temperature: 18.3°C (65°F)
Dewpoint: 17.2°C (63°F) [RH = 93%]
Pressure (altimeter): 30.09 inches Hg (1019.0 mb)
[Sea-level pressure: 1018.8 mb]
Winds: calm
Visibility: 10 or more miles (16+ km)
Ceiling: at least 12,000 feet AGL
Clouds: few clouds at 5000 feet AGL
scattered clouds at 9000 feet AGL
scattered clouds at 19000 feet AGL
Present Weather: no significant weather observed at this time
KMCO 190653Z 00000KT 10SM FEW050 SCT090 SCT190 18/17 A3009 RMK AO2 SLP188 T01830172

Conditions at: KMCO observed 19 November 2018  05:53 UTC
Temperature: 18.3°C (65°F)
Dewpoint: 17.2°C (63°F) [RH = 93%]
Pressure (altimeter): 30.10 inches Hg (1019.4 mb)
[Sea-level pressure: 1019.1 mb]
Winds: from the N (350 degrees) at 7 MPH (6 knots; 3.1 m/s)
Visibility: 10 or more miles (16+ km)
Ceiling: 25000 feet AGL
Clouds: scattered clouds at 7000 feet AGL
scattered clouds at 19000 feet AGL
broken clouds at 25000 feet AGL
Present Weather: no significant weather observed at this time
KMCO 190553Z 35006KT 10SM SCT070 SCT190 BKN250 18/17 A3010 RMK AO2 SLP191 T01830172 10217 20183 56009

Conditions at: KMCO observed 19 November 2018  04:53 UTC
Temperature: 18.3°C (65°F)
Dewpoint: 17.2°C (63°F) [RH = 93%]
Pressure (altimeter): 30.10 inches Hg (1019.4 mb)
[Sea-level pressure: 1019.1 mb]
Winds: from the N (360 degrees) at 6 MPH (5 knots; 2.6 m/s)
Visibility: 10 or more miles (16+ km)
Ceiling: at least 12,000 feet AGL
Clouds: few clouds at 8000 feet AGL
scattered clouds at 25000 feet AGL
Present Weather: no significant weather observed at this time
KMCO 190453Z 36005KT 10SM FEW080 SCT250 18/17 A3010 RMK AO2 SLP191 T01830172 402780144

Conditions at: KMCO observed 19 November 2018  03:53 UTC
Temperature: 18.9°C (66°F)
Dewpoint: 17.2°C (63°F) [RH = 90%]
Pressure (altimeter): 30.12 inches Hg (1020.1 mb)
[Sea-level pressure: 1019.8 mb]
Winds: from the N (360 degrees) at 5 MPH (4 knots; 2.1 m/s)
Visibility: 10 or more miles (16+ km)
Ceiling: at least 12,000 feet AGL
Clouds: few clouds at 8000 feet AGL
scattered clouds at 25000 feet AGL
Present Weather: no significant weather observed at this time
KMCO 190353Z 36004KT 10SM FEW080 SCT250 19/17 A3012 RMK AO2 SLP198 T01890172

Conditions at: KMCO observed 19 November 2018  02:53 UTC
Temperature: 20.0°C (68°F)
Dewpoint: 17.8°C (64°F) [RH = 87%]
Pressure (altimeter): 30.13 inches Hg (1020.4 mb)
[Sea-level pressure: 1020.0 mb]
Winds: from the NNE (30 degrees) at 8 MPH (7 knots; 3.6 m/s)
Visibility: 10 or more miles (16+ km)
Ceiling: 25000 feet AGL
Clouds: few clouds at 8500 feet AGL
broken clouds at 25000 feet AGL
Present Weather: no significant weather observed at this time
KMCO 190253Z 03007KT 10SM FEW085 BKN250 20/18 A3013 RMK AO2 SLP200 T02000178 50004

Conditions at: KMCO observed 19 November 2018  01:53 UTC
Temperature: 20.6°C (69°F)
Dewpoint: 17.8°C (64°F) [RH = 84%]
Pressure (altimeter): 30.13 inches Hg (1020.4 mb)
[Sea-level pressure: 1020.0 mb]
Winds: from the NNE (30 degrees) at 8 MPH (7 knots; 3.6 m/s)
Visibility: 10 or more miles (16+ km)
Ceiling: 25000 feet AGL
Clouds: few clouds at 5000 feet AGL
few clouds at 8500 feet AGL
broken clouds at 25000 feet AGL
Present Weather: no significant weather observed at this time
KMCO 190153Z 03007KT 10SM FEW050 FEW085 BKN250 21/18 A3013 RMK AO2 SLP200 T02060178

Conditions at: KMCO observed 19 November 2018  00:53 UTC
Temperature: 21.1°C (70°F)
Dewpoint: 17.8°C (64°F) [RH = 81%]
Pressure (altimeter): 30.12 inches Hg (1020.1 mb)
[Sea-level pressure: 1019.8 mb]
Winds: from the NNE (30 degrees) at 10 MPH (9 knots; 4.7 m/s)
Visibility: 10 or more miles (16+ km)
Ceiling: 25000 feet AGL
Clouds: few clouds at 5000 feet AGL
few clouds at 8000 feet AGL
broken clouds at 25000 feet AGL
Present Weather: no significant weather observed at this time
KMCO 190053Z 03009KT 10SM FEW050 FEW080 BKN250 21/18 A3012 RMK AO2 SLP198 T02110178

Conditions at: KMCO observed 18 November 2018  23:53 UTC
Temperature: 21.7°C (71°F)
Dewpoint: 17.8°C (64°F) [RH = 79%]
Pressure (altimeter): 30.11 inches Hg (1019.7 mb)
[Sea-level pressure: 1019.6 mb]
Winds: from the NE (50 degrees) at 9 MPH (8 knots; 4.2 m/s)
Visibility: 10 or more miles (16+ km)
Ceiling: 25000 feet AGL
Clouds: few clouds at 5500 feet AGL
few clouds at 8500 feet AGL
broken clouds at 25000 feet AGL
Present Weather: no significant weather observed at this time
KMCO 182353Z 05008KT 10SM FEW055 FEW085 BKN250 22/18 A3011 RMK AO2 SLP196 T02170178 10278 20217 53009

Conditions at: KMCO observed 18 November 2018  22:53 UTC
Temperature: 22.8°C (73°F)
Dewpoint: 17.8°C (64°F) [RH = 73%]
Pressure (altimeter): 30.09 inches Hg (1019.0 mb)
[Sea-level pressure: 1018.9 mb]
Winds: from the ENE (60 degrees) at 10 MPH (9 knots; 4.7 m/s)
Visibility: 10 or more miles (16+ km)
Ceiling: 25000 feet AGL
Clouds: few clouds at 5500 feet AGL
few clouds at 8500 feet AGL
broken clouds at 25000 feet AGL
Present Weather: no significant weather observed at this time
KMCO 182253Z 06009KT 10SM FEW055 FEW085 BKN250 23/18 A3009 RMK AO2 SLP189 T02280178

Conditions at: KMCO observed 18 November 2018  21:53 UTC
Temperature: 23.9°C (75°F)
Dewpoint: 17.2°C (63°F) [RH = 66%]
Pressure (altimeter): 30.09 inches Hg (1019.0 mb)
[Sea-level pressure: 1018.8 mb]
Winds: from the ENE (70 degrees) at 12 MPH (10 knots; 5.2 m/s)
Visibility: 10 or more miles (16+ km)
Ceiling: 8500 feet AGL
Clouds: few clouds at 5500 feet AGL
scattered clouds at 7500 feet AGL
broken clouds at 8500 feet AGL
broken clouds at 25000 feet AGL
Present Weather: no significant weather observed at this time
KMCO 182153Z 07010KT 10SM FEW055 SCT075 BKN085 BKN250 24/17 A3009 RMK AO2 SLP188 T02390172

Conditions at: KMCO observed 18 November 2018  20:53 UTC
Temperature: 25.6°C (78°F)
Dewpoint: 14.4°C (58°F) [RH = 50%]
Pressure (altimeter): 30.09 inches Hg (1019.0 mb)
[Sea-level pressure: 1018.6 mb]
Winds: from the E (80 degrees) at 9 MPH (8 knots; 4.2 m/s)
Visibility: 10 or more miles (16+ km)
Ceiling: 25000 feet AGL
Clouds: few clouds at 5500 feet AGL
scattered clouds at 6500 feet AGL
scattered clouds at 8000 feet AGL
broken clouds at 25000 feet AGL
Present Weather: no significant weather observed at this time
KMCO 182053Z 08008KT 10SM FEW055 SCT065 SCT080 BKN250 26/14 A3009 RMK AO2 SLP186 T02560144 55013

Conditions at: KMCO observed 18 November 2018  19:53 UTC
Temperature: 26.7°C (80°F)
Dewpoint: 13.9°C (57°F) [RH = 45%]
Pressure (altimeter): 30.08 inches Hg (1018.7 mb)
[Sea-level pressure: 1018.5 mb]
Winds: calm
Visibility: 10 or more miles (16+ km)
Ceiling: 25000 feet AGL
Clouds: scattered clouds at 5500 feet AGL
scattered clouds at 8000 feet AGL
broken clouds at 25000 feet AGL
Present Weather: no significant weather observed at this time
KMCO 181953Z 00000KT 10SM SCT055 SCT080 BKN250 27/14 A3008 RMK AO2 SLP185 T02670139

Conditions at: KMCO observed 18 November 2018  18:53 UTC
Temperature: 26.1°C (79°F)
Dewpoint: 12.8°C (55°F) [RH = 44%]
Pressure (altimeter): 30.10 inches Hg (1019.4 mb)
[Sea-level pressure: 1019.0 mb]
Winds: from the ESE (120 degrees) at 3 MPH (3 knots; 1.6 m/s)
Visibility: 10 or more miles (16+ km)
Ceiling: 25000 feet AGL
Clouds: few clouds at 5500 feet AGL
scattered clouds at 7500 feet AGL
broken clouds at 25000 feet AGL
Present Weather: no significant weather observed at this time
KMCO 181853Z 12003KT 10SM FEW055 SCT075 BKN250 26/13 A3010 RMK AO2 SLP190 T02610128

Conditions at: KMCO observed 18 November 2018  17:53 UTC
Temperature: 26.1°C (79°F)
Dewpoint: 15.0°C (59°F) [RH = 50%]
Pressure (altimeter): 30.12 inches Hg (1020.1 mb)
[Sea-level pressure: 1019.9 mb]
Winds: variable direction winds at 3 MPH (3 knots; 1.6 m/s)
Visibility: 10 or more miles (16+ km)
Ceiling: 25000 feet AGL
Clouds: scattered clouds at 4000 feet AGL
broken clouds at 25000 feet AGL
Present Weather: no significant weather observed at this time
KMCO 181753Z VRB03KT 10SM SCT040 BKN250 26/15 A3012 RMK AO2 SLP199 T02610150 10267 20144 58019

Conditions at: KMCO observed 18 November 2018  16:53 UTC
Temperature: 25.6°C (78°F)
Dewpoint: 15.6°C (60°F) [RH = 54%]
Pressure (altimeter): 30.16 inches Hg (1021.4 mb)
[Sea-level pressure: 1021.0 mb]
Winds: variable direction winds at 3 MPH (3 knots; 1.6 m/s)
Visibility: 10 or more miles (16+ km)
Ceiling: 25000 feet AGL
Clouds: few clouds at 4000 feet AGL
few clouds at 7000 feet AGL
broken clouds at 25000 feet AGL
Present Weather: no significant weather observed at this time
KMCO 181653Z VRB03KT 10SM FEW040 FEW070 BKN250 26/16 A3016 RMK AO2 SLP210 T02560156

Conditions at: KMCO observed 18 November 2018  15:53 UTC
Temperature: 25.0°C (77°F)
Dewpoint: 16.7°C (62°F) [RH = 60%]
Pressure (altimeter): 30.18 inches Hg (1022.1 mb)
[Sea-level pressure: 1021.8 mb]
Winds: from the NNW (340 degrees) at 6 MPH (5 knots; 2.6 m/s)
Visibility: 10 or more miles (16+ km)
Ceiling: 25000 feet AGL
Clouds: few clouds at 4000 feet AGL
few clouds at 7000 feet AGL
broken clouds at 25000 feet AGL
Present Weather: no significant weather observed at this time
KMCO 181553Z 34005KT 10SM FEW040 FEW070 BKN250 25/17 A3018 RMK AO2 SLP218 T02500167

Conditions at: KMCO observed 18 November 2018  14:53 UTC
Temperature: 22.2°C (72°F)
Dewpoint: 17.2°C (63°F) [RH = 73%]
Pressure (altimeter): 30.18 inches Hg (1022.1 mb)
[Sea-level pressure: 1021.8 mb]
Winds: variable direction winds at 6 MPH (5 knots; 2.6 m/s)
Visibility: 10 or more miles (16+ km)
Ceiling: at least 12,000 feet AGL
Clouds: few clouds at 4200 feet AGL
scattered clouds at 25000 feet AGL
Present Weather: no significant weather observed at this time
KMCO 181453Z VRB05KT 10SM FEW042 SCT250 22/17 A3018 RMK AO2 SLP218 T02220172 51011

Conditions at: KMCO observed 18 November 2018  13:53 UTC
Temperature: 19.4°C (67°F)
Dewpoint: 17.2°C (63°F) [RH = 87%]
Pressure (altimeter): 30.18 inches Hg (1022.1 mb)
[Sea-level pressure: 1021.7 mb]
Winds: from the N (360 degrees) at 8 MPH (7 knots; 3.6 m/s)
Visibility: 10 or more miles (16+ km)
Ceiling: at least 12,000 feet AGL
Clouds: few clouds at 4200 feet AGL
scattered clouds at 25000 feet AGL
Present Weather: no significant weather observed at this time
KMCO 181353Z 36007KT 10SM FEW042 SCT250 19/17 A3018 RMK AO2 SLP217 T01940172

Conditions at: KMCO observed 18 November 2018  12:53 UTC
Temperature: 16.7°C (62°F)
Dewpoint: 16.1°C (61°F) [RH = 96%]
Pressure (altimeter): 30.16 inches Hg (1021.4 mb)
[Sea-level pressure: 1021.2 mb]
Winds: from the N (360 degrees) at 7 MPH (6 knots; 3.1 m/s)
Visibility: 10 or more miles (16+ km)
Ceiling: at least 12,000 feet AGL
Clouds: few clouds at 4200 feet AGL
few clouds at 25000 feet AGL
Present Weather: no significant weather observed at this time
KMCO 181253Z 36006KT 10SM FEW042 FEW250 17/16 A3016 RMK AO2 SLP212 T01670161

Conditions at: KMCO observed 18 November 2018  11:53 UTC
Temperature: 15.0°C (59°F)
Dewpoint: 14.4°C (58°F) [RH = 96%]
Pressure (altimeter): 30.15 inches Hg (1021.1 mb)
[Sea-level pressure: 1020.7 mb]
Winds: from the N (350 degrees) at 6 MPH (5 knots; 2.6 m/s)
Visibility: 9 miles (14 km)
Ceiling: at least 12,000 feet AGL
Clouds: few clouds at 4200 feet AGL
scattered clouds at 25000 feet AGL
Present Weather: no significant weather observed at this time
KMCO 181153Z 35005KT 9SM FEW042 SCT250 15/14 A3015 RMK AO2 SLP207 T01500144 10161 20144 53008

Conditions at: KMCO observed 18 November 2018  10:53 UTC
Temperature: 15.0°C (59°F)
Dewpoint: 14.4°C (58°F) [RH = 96%]
Pressure (altimeter): 30.14 inches Hg (1020.7 mb)
[Sea-level pressure: 1020.4 mb]
Winds: from the N (360 degrees) at 5 MPH (4 knots; 2.1 m/s)
Visibility: 10 or more miles (16+ km)
Ceiling: at least 12,000 feet AGL
Clouds: few clouds at 4200 feet AGL
Present Weather: no significant weather observed at this time
KMCO 181053Z 36004KT 10SM FEW042 15/14 A3014 RMK AO2 SLP204 T01500144

Conditions at: KMCO observed 18 November 2018  09:53 UTC
Temperature: 15.0°C (59°F)
Dewpoint: 14.4°C (58°F) [RH = 96%]
Pressure (altimeter): 30.13 inches Hg (1020.4 mb)
[Sea-level pressure: 1020.0 mb]
Winds: from the N (350 degrees) at 5 MPH (4 knots; 2.1 m/s)
Visibility: 10 or more miles (16+ km)
Ceiling: at least 12,000 feet AGL
Clouds: few clouds at 4200 feet AGL
Present Weather: no significant weather observed at this time
KMCO 180953Z 35004KT 10SM FEW042 15/14 A3013 RMK AO2 SLP200 T01500144

Conditions at: KMCO observed 18 November 2018  08:53 UTC
Temperature: 15.6°C (60°F)
Dewpoint: 15.0°C (59°F) [RH = 96%]
Pressure (altimeter): 30.12 inches Hg (1020.1 mb)
[Sea-level pressure: 1019.8 mb]
Winds: from the N (350 degrees) at 7 MPH (6 knots; 3.1 m/s)
Visibility: 10 or more miles (16+ km)
Ceiling: at least 12,000 feet AGL
Clouds: few clouds at 4100 feet AGL
Present Weather: no significant weather observed at this time
KMCO 180853Z 35006KT 10SM FEW041 16/15 A3012 RMK AO2 SLP198 T01560150 55001

Conditions at: KMCO observed 18 November 2018  07:53 UTC
Temperature: 15.0°C (59°F)
Dewpoint: 14.4°C (58°F) [RH = 96%]
Pressure (altimeter): 30.11 inches Hg (1019.7 mb)
[Sea-level pressure: 1019.5 mb]
Winds: from the N (360 degrees) at 3 MPH (3 knots; 1.6 m/s)
Visibility: 10 or more miles (16+ km)
Ceiling: at least 12,000 feet AGL
Clouds: few clouds at 4500 feet AGL
Present Weather: no significant weather observed at this time
KMCO 180753Z 36003KT 10SM FEW045 15/14 A3011 RMK AO2 SLP195 T01500144

Conditions at: KMCO observed 18 November 2018  06:53 UTC
Temperature: 15.6°C (60°F)
Dewpoint: 15.0°C (59°F) [RH = 96%]
Pressure (altimeter): 30.13 inches Hg (1020.4 mb)
[Sea-level pressure: 1020.0 mb]
Winds: from the NNW (340 degrees) at 7 MPH (6 knots; 3.1 m/s)
Visibility: 10 or more miles (16+ km)
Ceiling: at least 12,000 feet AGL
Clouds: few clouds at 25000 feet AGL
Present Weather: no significant weather observed at this time
KMCO 180653Z 34006KT 10SM FEW250 16/15 A3013 RMK AO2 SLP200 T01560150

Conditions at: KMCO observed 18 November 2018  05:53 UTC
Temperature: 15.6°C (60°F)
Dewpoint: 14.4°C (58°F) [RH = 93%]
Pressure (altimeter): 30.13 inches Hg (1020.4 mb)
[Sea-level pressure: 1019.9 mb]
Winds: from the N (350 degrees) at 6 MPH (5 knots; 2.6 m/s)
Visibility: 10 or more miles (16+ km)
Ceiling: at least 12,000 feet AGL
Clouds: few clouds at 25000 feet AGL
Present Weather: no significant weather observed at this time
KMCO 180553Z 35005KT 10SM FEW250 16/14 A3013 RMK AO2 SLP199 T01560144 10194 20156 56011

Conditions at: KMCO observed 18 November 2018  04:53 UTC
Temperature: 16.1°C (61°F)
Dewpoint: 14.4°C (58°F) [RH = 90%]
Pressure (altimeter): 30.13 inches Hg (1020.4 mb)
[Sea-level pressure: 1020.3 mb]
Winds: from the N (350 degrees) at 6 MPH (5 knots; 2.6 m/s)
Visibility: 10 or more miles (16+ km)
Ceiling: at least 12,000 feet AGL
Clouds: few clouds at 25000 feet AGL
Present Weather: no significant weather observed at this time
KMCO 180453Z 35005KT 10SM FEW250 16/14 A3013 RMK AO2 SLP203 T01610144 402440089

Conditions at: KMCO observed 18 November 2018  03:53 UTC
Temperature: 16.1°C (61°F)
Dewpoint: 14.4°C (58°F) [RH = 90%]
Pressure (altimeter): 30.14 inches Hg (1020.7 mb)
[Sea-level pressure: 1020.5 mb]
Winds: from the N (350 degrees) at 8 MPH (7 knots; 3.6 m/s)
Visibility: 10 or more miles (16+ km)
Ceiling: at least 12,000 feet AGL
Clouds: few clouds at 4500 feet AGL
few clouds at 25000 feet AGL
Present Weather: no significant weather observed at this time
KMCO 180353Z 35007KT 10SM FEW045 FEW250 16/14 A3014 RMK AO2 SLP205 T01610144

Conditions at: KMCO observed 18 November 2018  02:53 UTC
Temperature: 16.1°C (61°F)
Dewpoint: 14.4°C (58°F) [RH = 90%]
Pressure (altimeter): 30.16 inches Hg (1021.4 mb)
[Sea-level pressure: 1021.1 mb]
Winds: from the N (360 degrees) at 7 MPH (6 knots; 3.1 m/s)
Visibility: 10 or more miles (16+ km)
Ceiling: at least 12,000 feet AGL
Clouds: few clouds at 4000 feet AGL
few clouds at 25000 feet AGL
Present Weather: no significant weather observed at this time
KMCO 180253Z 36006KT 10SM FEW040 FEW250 16/14 A3016 RMK AO2 SLP211 T01610144 50002

Conditions at: KMCO observed 18 November 2018  01:53 UTC
Temperature: 17.2°C (63°F)
Dewpoint: 14.4°C (58°F) [RH = 84%]
Pressure (altimeter): 30.16 inches Hg (1021.4 mb)
[Sea-level pressure: 1021.3 mb]
Winds: from the NNE (20 degrees) at 8 MPH (7 knots; 3.6 m/s)
Visibility: 10 or more miles (16+ km)
Ceiling: at least 12,000 feet AGL
Clouds: few clouds at 25000 feet AGL
Present Weather: no significant weather observed at this time
KMCO 180153Z 02007KT 10SM FEW250 17/14 A3016 RMK AO2 SLP213 T01720144

Conditions at: KMCO observed 18 November 2018  00:53 UTC
Temperature: 18.3°C (65°F)
Dewpoint: 14.4°C (58°F) [RH = 78%]
Pressure (altimeter): 30.15 inches Hg (1021.1 mb)
[Sea-level pressure: 1021.0 mb]
Winds: from the NNE (30 degrees) at 12 MPH (10 knots; 5.2 m/s)
Visibility: 10 or more miles (16+ km)
Ceiling: at least 12,000 feet AGL
Clouds: few clouds at 25000 feet AGL
Present Weather: no significant weather observed at this time
KMCO 180053Z 03010KT 10SM FEW250 18/14 A3015 RMK AO2 SLP210 T01830144

Conditions at: KMCO observed 17 November 2018  23:53 UTC
Temperature: 19.4°C (67°F)
Dewpoint: 14.4°C (58°F) [RH = 73%]
Pressure (altimeter): 30.15 inches Hg (1021.1 mb)
[Sea-level pressure: 1021.0 mb]
Winds: from the NE (40 degrees) at 9 MPH (8 knots; 4.2 m/s)
Visibility: 10 or more miles (16+ km)
Ceiling: at least 12,000 feet AGL
Clouds: few clouds at 25000 feet AGL
Present Weather: no significant weather observed at this time
KMCO 172353Z 04008KT 10SM FEW250 19/14 A3015 RMK AO2 SLP210 T01940144 10244 20194 53014

Conditions at: KMCO observed 17 November 2018  22:53 UTC
Temperature: 20.6°C (69°F)
Dewpoint: 13.3°C (56°F) [RH = 63%]
Pressure (altimeter): 30.14 inches Hg (1020.7 mb)
[Sea-level pressure: 1020.6 mb]
Winds: from the ENE (70 degrees) at 9 MPH (8 knots; 4.2 m/s)
Visibility: 10 or more miles (16+ km)
Ceiling: at least 12,000 feet AGL
Clouds: few clouds at 5000 feet AGL
scattered clouds at 25000 feet AGL
Present Weather: no significant weather observed at this time
KMCO 172253Z 07008KT 10SM FEW050 SCT250 21/13 A3014 RMK AO2 SLP206 T02060133

Conditions at: KMCO observed 17 November 2018  21:53 UTC
Temperature: 22.2°C (72°F)
Dewpoint: 12.8°C (55°F) [RH = 55%]
Pressure (altimeter): 30.12 inches Hg (1020.1 mb)
[Sea-level pressure: 1019.9 mb]
Winds: from the ENE (60 degrees) at 12 MPH (10 knots; 5.2 m/s)
Visibility: 10 or more miles (16+ km)
Ceiling: at least 12,000 feet AGL
Clouds: few clouds at 5000 feet AGL
scattered clouds at 25000 feet AGL
Present Weather: no significant weather observed at this time
KMCO 172153Z 06010KT 10SM FEW050 SCT250 22/13 A3012 RMK AO2 SLP199 T02220128

Conditions at: KMCO observed 17 November 2018  20:53 UTC
Temperature: 23.9°C (75°F)
Dewpoint: 12.2°C (54°F) [RH = 48%]
Pressure (altimeter): 30.11 inches Hg (1019.7 mb)
[Sea-level pressure: 1019.5 mb]
Winds: from the ENE (60 degrees) at 10 MPH (9 knots; 4.7 m/s)
Visibility: 10 or more miles (16+ km)
Ceiling: at least 12,000 feet AGL
Clouds: few clouds at 4900 feet AGL
scattered clouds at 25000 feet AGL
Present Weather: no significant weather observed at this time
KMCO 172053Z 06009KT 10SM FEW049 SCT250 24/12 A3011 RMK AO2 SLP195 T02390122 55006

Conditions at: KMCO observed 17 November 2018  19:53 UTC
Temperature: 22.8°C (73°F)
Dewpoint: 11.7°C (53°F) [RH = 50%]
Pressure (altimeter): 30.11 inches Hg (1019.7 mb)
[Sea-level pressure: 1019.3 mb]
Winds: from the E (90 degrees) at 6 MPH (5 knots; 2.6 m/s)
Visibility: 10 or more miles (16+ km)
Ceiling: at least 12,000 feet AGL
Clouds: scattered clouds at 4800 feet AGL
Present Weather: no significant weather observed at this time
KMCO 171953Z 09005KT 10SM SCT048 23/12 A3011 RMK AO2 SLP193 T02280117

Conditions at: KMCO observed 17 November 2018  18:53 UTC
Temperature: 23.9°C (75°F)
Dewpoint: 12.2°C (54°F) [RH = 48%]
Pressure (altimeter): 30.11 inches Hg (1019.7 mb)
[Sea-level pressure: 1019.6 mb]
Winds: variable direction winds at 6 MPH (5 knots; 2.6 m/s)
Visibility: 10 or more miles (16+ km)
Ceiling: at least 12,000 feet AGL
Clouds: scattered clouds at 4300 feet AGL
Present Weather: no significant weather observed at this time
KMCO 171853Z VRB05KT 10SM SCT043 24/12 A3011 RMK AO2 SLP196 T02390122

Conditions at: KMCO observed 17 November 2018  17:53 UTC
Temperature: 22.8°C (73°F)
Dewpoint: 12.8°C (55°F) [RH = 53%]
Pressure (altimeter): 30.13 inches Hg (1020.4 mb)
[Sea-level pressure: 1020.1 mb]
Winds: from the ENE (60 degrees) at 7 MPH (6 knots; 3.1 m/s)
Visibility: 10 or more miles (16+ km)
Ceiling: at least 12,000 feet AGL
Clouds: few clouds at 3800 feet AGL
scattered clouds at 20000 feet AGL
Present Weather: no significant weather observed at this time
KMCO 171753Z 06006KT 10SM FEW038 SCT200 23/13 A3013 RMK AO2 SLP201 T02280128 10233 20100 58024

Conditions at: KMCO observed 17 November 2018  16:53 UTC
Temperature: 22.2°C (72°F)
Dewpoint: 12.8°C (55°F) [RH = 55%]
Pressure (altimeter): 30.16 inches Hg (1021.4 mb)
[Sea-level pressure: 1021.3 mb]
Winds: from the NE (40 degrees) at 10 MPH (9 knots; 4.7 m/s)
Visibility: 10 or more miles (16+ km)
Ceiling: at least 12,000 feet AGL
Clouds: few clouds at 3000 feet AGL
few clouds at 20000 feet AGL
Present Weather: no significant weather observed at this time
KMCO 171653Z 04009KT 10SM FEW030 FEW200 22/13 A3016 RMK AO2 SLP213 T02220128

Conditions at: KMCO observed 17 November 2018  15:53 UTC
Temperature: 20.6°C (69°F)
Dewpoint: 11.7°C (53°F) [RH = 57%]
Pressure (altimeter): 30.19 inches Hg (1022.4 mb)
[Sea-level pressure: 1022.2 mb]
Winds: from the NNE (30 degrees) at 9 MPH (8 knots; 4.2 m/s)
Visibility: 10 or more miles (16+ km)
Ceiling: at least 12,000 feet AGL
Clouds: sky clear below 12,000 feet AGL
Present Weather: no significant weather observed at this time
KMCO 171553Z 03008KT 10SM CLR 21/12 A3019 RMK AO2 SLP222 T02060117

Conditions at: KMCO observed 17 November 2018  14:53 UTC
Temperature: 17.8°C (64°F)
Dewpoint: 11.1°C (52°F) [RH = 65%]
Pressure (altimeter): 30.20 inches Hg (1022.8 mb)
[Sea-level pressure: 1022.7 mb]
Winds: from the N (360 degrees) at 10 MPH (9 knots; 4.7 m/s)
Visibility: 10 or more miles (16+ km)
Ceiling: at least 12,000 feet AGL
Clouds: sky clear below 12,000 feet AGL
Present Weather: no significant weather observed at this time
KMCO 171453Z 36009KT 10SM CLR 18/11 A3020 RMK AO2 SLP227 T01780111 50006

Conditions at: KMCO observed 17 November 2018  13:53 UTC
Temperature: 14.4°C (58°F)
Dewpoint: 9.4°C (49°F) [RH = 72%]
Pressure (altimeter): 30.21 inches Hg (1023.1 mb)
[Sea-level pressure: 1023.0 mb]
Winds: from the N (360 degrees) at 9 MPH (8 knots; 4.2 m/s)
Visibility: 10 or more miles (16+ km)
Ceiling: at least 12,000 feet AGL
Clouds: sky clear below 12,000 feet AGL
Present Weather: no significant weather observed at this time
KMCO 171353Z 36008KT 10SM CLR 14/09 A3021 RMK AO2 SLP230 T01440094

Conditions at: KMCO observed 17 November 2018  12:53 UTC
Temperature: 11.7°C (53°F)
Dewpoint: 7.8°C (46°F) [RH = 77%]
Pressure (altimeter): 30.20 inches Hg (1022.8 mb)
[Sea-level pressure: 1022.4 mb]
Winds: from the N (350 degrees) at 7 MPH (6 knots; 3.1 m/s)
Visibility: 10 or more miles (16+ km)
Ceiling: at least 12,000 feet AGL
Clouds: sky clear below 12,000 feet AGL
Present Weather: no significant weather observed at this time
KMCO 171253Z 35006KT 10SM CLR 12/08 A3020 RMK AO2 SLP224 T01170078

Conditions at: KMCO observed 17 November 2018  11:53 UTC
Temperature: 10.0°C (50°F)
Dewpoint: 6.7°C (44°F) [RH = 80%]
Pressure (altimeter): 30.18 inches Hg (1022.1 mb)
[Sea-level pressure: 1022.0 mb]
Winds: from the N (350 degrees) at 9 MPH (8 knots; 4.2 m/s)
Visibility: 10 or more miles (16+ km)
Ceiling: at least 12,000 feet AGL
Clouds: sky clear below 12,000 feet AGL
Present Weather: no significant weather observed at this time
KMCO 171153Z 35008KT 10SM CLR 10/07 A3018 RMK AO2 SLP220 T01000067 10106 20089 53011